Flight Number: EUR2234 Duration: 1:45
Departure: Skopje Airport (LWSK) at 21:20 Distance: 566 Nm
Arrival: Munich Int'l (EDDM) at 23:05 Equipment: B737

Weather Information
Skopje-Petrovec, Macedonia, The Republic of (LWSK) 41-58N 021-39E 239M May 22, 2018 - 03:00 PM EDT / 2018.05.22 1900 UTC
Wind: Variable at 1 MPH (1 KT):0
Visibility: greater than 7 mile(s):0 Temperature: 60 F (16 C) Dew Point: 57 F (14 C) Relative Humidity: 87% Pressure (altimeter): 30.09 in. Hg (1019 hPa)
ob: LWSK 221900Z VRB01KT CAVOK 16/14 Q1019 NOSIG cycle: 19
Sunrise: 03:09 Sunset: 17:50 (UTC)

Munchen, Germany (EDDM) 48-21N 011-47E May 22, 2018 - 02:50 PM EDT / 2018.05.22 1850 UTC
Wind: from the SW (230 degrees) at 6 MPH (5 KT) (direction variable):0
Visibility: greater than 7 mile(s):0
Sky conditions: mostly cloudy Weather: light rain showers; Towering cumulus clouds observed Temperature: 62 F (17 C) Dew Point: 53 F (12 C) Relative Humidity: 72% Pressure (altimeter): 29.91 in. Hg (1013 hPa)
ob: EDDM 221850Z 23005KT 190V320 9999 -SHRA FEW055TCU SCT085 BKN120 17/12 Q1013 TEMPO SHRA cycle: 19
Sunrise: 03:28 Sunset: 18:51 (UTC)

TAF:2018/05/22 18:27 TAF EDDM 221700Z 2218/2324 VRB03KT CAVOK PROB40 TEMPO 2218/2220 18015G25KT TSRA BKN040CB PROB30 TEMPO 2304/2310 SHRA SCT040TCU BECMG 2308/2310 05007KT PROB40 TEMPO 2314/2320 16015G25KT TSRA BKN040CB BECMG 2318/2320 VRB03KT

Previous Pireps for this route
Date Aircraft Flight time Fuel used Landing rate On time
2013-07-24B73701.5211200-241Yes
2014-01-03B73702.1319437-490No
2014-11-05B73701.4310476-121Yes
(pireps marked green are flown by you)

Route map